Time;durP1;ratioP1;P1;durP2;ratioP2;P2;SDS_P1;SDS_P2;PMS_P1;PMS_P2;Temp;Humidity;BMP_temperature;BMP_pressure;BME280_temperature;BME280_humidity;BME280_pressure;Samples;Min_cycle;Max_cycle;Signal;HPM_P1;HPM_P2
2022/04/10 15:29:42;;;;;;;7.13;4.30;;;7.30;99.90;;;;;;5088628;28;20535;-69
2022/04/10 15:32:09;;;;;;;6.53;4.13;;;7.90;99.90;;;;;;5088703;28;20615;-68
2022/04/10 15:34:36;;;;;;;7.27;4.30;;;7.90;99.90;;;;;;5089075;28;20616;-67
2022/04/10 15:37:04;;;;;;;5.43;3.80;;;8.00;99.90;;;;;;5088554;28;20696;-68
2022/04/10 15:39:31;;;;;;;7.80;4.10;;;7.90;99.90;;;;;;5088491;28;20208;-67
2022/04/10 15:41:58;;;;;;;5.30;3.80;;;7.90;99.90;;;;;;5088827;28;20204;-68
2022/04/10 15:44:25;;;;;;;6.17;3.70;;;7.90;99.90;;;;;;5088398;28;20290;-68
2022/04/10 15:46:57;;;;;;;7.13;3.60;;;7.90;99.90;;;;;;5088429;28;20287;-67
2022/04/10 15:49:24;;;;;;;5.57;3.77;;;7.90;99.90;;;;;;5088540;28;20214;-69
2022/04/10 15:51:51;;;;;;;7.17;3.83;;;7.90;99.90;;;;;;5088341;28;20204;-68
2022/04/10 15:54:18;;;;;;;6.97;4.10;;;7.90;99.90;;;;;;5088355;28;20240;-69
2022/04/10 15:56:46;;;;;;;6.33;4.07;;;7.90;99.90;;;;;;5088064;28;20226;-68
2022/04/10 15:59:13;;;;;;;8.00;4.07;;;7.90;99.90;;;;;;5088383;28;20287;-68
2022/04/10 16:01:40;;;;;;;9.43;4.43;;;8.00;99.90;;;;;;5088269;28;20213;-68
2022/04/10 16:04:09;;;;;;;9.03;4.60;;;8.00;99.90;;;;;;5088416;28;20211;-68
2022/04/10 16:06:37;;;;;;;9.50;4.77;;;7.90;99.90;;;;;;5088145;28;20254;-67
2022/04/10 16:09:04;;;;;;;8.63;4.57;;;7.90;99.90;;;;;;5088179;28;20579;-68
2022/04/10 16:11:32;;;;;;;9.27;4.80;;;7.90;99.90;;;;;;5088401;28;20253;-68
2022/04/10 16:13:59;;;;;;;7.97;4.37;;;7.90;99.90;;;;;;5088233;28;20291;-68
2022/04/10 16:16:26;;;;;;;7.00;4.47;;;7.80;99.90;;;;;;5088358;28;20204;-68
2022/04/10 16:18:54;;;;;;;13.87;4.57;;;7.80;99.90;;;;;;5088249;28;20228;-67
2022/04/10 16:21:23;;;;;;;6.83;3.80;;;7.70;99.90;;;;;;5088282;28;20204;-68
2022/04/10 16:23:51;;;;;;;8.07;4.20;;;7.60;99.90;;;;;;5088127;28;20247;-67
2022/04/10 16:26:18;;;;;;;7.67;3.93;;;7.60;99.90;;;;;;5088051;28;20204;-68
2022/04/10 16:31:30;;;;;;;6.33;3.93;;;7.60;99.90;;;;;;5074567;28;20192;-70
2022/04/10 16:36:45;;;;;;;6.70;4.43;;;7.60;99.90;;;;;;5074542;28;20645;-68
2022/04/10 16:39:13;;;;;;;11.60;5.27;;;7.60;99.90;;;;;;5074691;28;20545;-70
2022/04/10 16:41:40;;;;;;;7.43;5.03;;;7.60;99.90;;;;;;5074218;28;20597;-69
2022/04/10 16:44:07;;;;;;;8.60;5.13;;;7.60;99.90;;;;;;5074132;28;20208;-71
2022/04/10 16:46:35;;;;;;;9.77;5.33;;;7.60;99.90;;;;;;5074549;28;20233;-70
2022/04/10 16:49:03;;;;;;;9.07;5.00;;;7.60;99.90;;;;;;5074240;28;20228;-68
2022/04/10 16:51:31;;;;;;;9.23;4.83;;;7.60;99.90;;;;;;5073961;28;20278;-68
2022/04/10 16:54:47;;;;;;;10.37;5.03;;;7.60;99.90;;;;;;5074357;28;20216;-68
2022/04/10 16:56:49;;;;;;;11.10;5.63;;;7.60;99.90;;;;;;5074081;28;20613;-68
2022/04/10 16:59:17;;;;;;;10.00;5.30;;;7.60;99.90;;;;;;5074107;28;20613;-68
2022/04/10 17:01:44;;;;;;;10.60;5.43;;;7.60;99.90;;;;;;5074396;28;20662;-71
2022/04/10 17:04:12;;;;;;;9.63;5.60;;;7.60;99.90;;;;;;5074133;28;20575;-69
2022/04/10 17:06:39;;;;;;;10.93;5.87;;;7.60;99.90;;;;;;5074380;28;20213;-69
2022/04/10 17:09:09;;;;;;;10.50;5.47;;;7.60;99.90;;;;;;5073989;28;20233;-69
2022/04/10 17:11:38;;;;;;;10.83;5.40;;;7.70;99.90;;;;;;5073611;28;20213;-68
2022/04/10 17:14:06;;;;;;;14.87;6.77;;;7.70;99.90;;;;;;5073887;28;20570;-69
2022/04/10 17:16:33;;;;;;;14.50;6.80;;;7.70;99.90;;;;;;5073492;28;20244;-68
2022/04/10 17:19:01;;;;;;;9.60;6.23;;;7.70;99.90;;;;;;5073789;28;20227;-68
2022/04/10 17:21:29;;;;;;;8.33;5.17;;;7.70;99.90;;;;;;5073516;28;20216;-70
2022/04/10 17:23:57;;;;;;;10.03;5.57;;;7.70;99.90;;;;;;5073588;28;20212;-68
2022/04/10 17:26:26;;;;;;;8.60;5.30;;;7.60;99.90;;;;;;5073494;28;20231;-69
2022/04/10 17:28:53;;;;;;;7.77;4.93;;;7.70;99.90;;;;;;5073200;28;20305;-67
2022/04/10 17:31:21;;;;;;;8.70;5.30;;;7.70;99.90;;;;;;5073290;28;20212;-68
2022/04/10 17:33:48;;;;;;;7.53;4.83;;;7.70;99.90;;;;;;5073127;28;20209;-69
2022/04/10 17:36:16;;;;;;;10.70;5.37;;;7.70;99.90;;;;;;5073581;28;20687;-68
2022/04/10 17:38:43;;;;;;;6.77;5.07;;;7.70;99.90;;;;;;5073028;28;20197;-68
2022/04/10 17:41:11;;;;;;;7.63;5.27;;;7.70;99.90;;;;;;5072210;28;20204;-67
2022/04/10 17:43:40;;;;;;;11.93;5.73;;;7.80;99.90;;;;;;5072941;28;20284;-69
2022/04/10 17:46:08;;;;;;;11.60;6.00;;;7.90;99.90;;;;;;5072945;28;20216;-68
2022/04/10 17:48:35;;;;;;;11.70;5.80;;;7.90;99.90;;;;;;5072768;28;20216;-68
2022/04/10 17:51:03;;;;;;;12.80;6.40;;;7.90;99.90;;;;;;5072947;28;20299;-69
2022/04/10 17:53:30;;;;;;;14.20;6.07;;;7.90;99.90;;;;;;5072742;28;20213;-68
2022/04/10 17:55:58;;;;;;;14.57;6.57;;;7.90;99.90;;;;;;5073190;28;20315;-69
2022/04/10 17:58:25;;;;;;;12.97;5.73;;;7.90;99.90;;;;;;5072786;28;20205;-68
2022/04/10 18:00:54;;;;;;;15.13;7.00;;;7.90;99.90;;;;;;5072739;28;20572;-68
2022/04/10 18:03:22;;;;;;;9.20;4.70;;;7.80;99.90;;;;;;5072729;28;20313;-68
2022/04/10 18:05:49;;;;;;;4.80;3.30;;;7.80;99.90;;;;;;5072541;28;20303;-68
2022/04/10 18:08:17;;;;;;;7.83;3.50;;;7.70;99.90;;;;;;5072775;28;20729;-68
2022/04/10 18:10:44;;;;;;;5.80;3.33;;;7.70;99.90;;;;;;5072290;28;20204;-69
2022/04/10 18:13:12;;;;;;;7.97;3.70;;;7.70;99.90;;;;;;5072428;28;20239;-67
2022/04/10 18:15:39;;;;;;;7.23;3.90;;;7.70;99.90;;;;;;5072673;28;20593;-68
2022/04/10 18:18:10;;;;;;;7.20;4.00;;;7.70;99.90;;;;;;5072818;28;20586;-68
2022/04/10 18:20:38;;;;;;;8.00;4.30;;;7.70;99.90;;;;;;5072220;28;20193;-67
2022/04/10 18:23:06;;;;;;;8.47;4.13;;;7.60;99.90;;;;;;5072237;28;20212;-68
2022/04/10 18:25:33;;;;;;;6.27;3.80;;;7.60;99.90;;;;;;5072351;28;20204;-68
2022/04/10 18:28:01;;;;;;;8.33;4.33;;;7.60;99.90;;;;;;5072063;28;20244;-69
2022/04/10 18:30:29;;;;;;;9.60;4.17;;;7.60;99.90;;;;;;5072030;28;20212;-67
2022/04/10 18:32:57;;;;;;;12.10;5.03;;;7.60;99.90;;;;;;5072275;28;20211;-68
2022/04/10 18:35:26;;;;;;;8.20;5.00;;;7.50;99.90;;;;;;5072295;28;20296;-69
2022/04/10 18:37:54;;;;;;;10.37;5.00;;;7.50;99.90;;;;;;5072054;28;20291;-68
2022/04/10 18:40:22;;;;;;;11.60;5.10;;;7.50;99.90;;;;;;5071920;28;20205;-68
2022/04/10 18:42:49;;;;;;;14.33;5.43;;;7.40;99.90;;;;;;5072056;28;20291;-68
2022/04/10 18:45:16;;;;;;;10.80;4.70;;;7.50;99.90;;;;;;5072035;28;20201;-68
2022/04/10 18:47:44;;;;;;;13.30;5.83;;;7.40;99.90;;;;;;5072061;28;20205;-68
2022/04/10 18:50:12;;;;;;;8.37;4.70;;;7.40;99.90;;;;;;5071833;28;20229;-67
2022/04/10 18:52:41;;;;;;;9.07;4.50;;;7.40;99.90;;;;;;5071539;28;20244;-68
2022/04/10 18:55:10;;;;;;;9.37;4.80;;;7.30;99.90;;;;;;5071864;28;20258;-67
2022/04/10 18:57:38;;;;;;;11.17;4.87;;;7.20;99.90;;;;;;5071808;28;20204;-68
2022/04/10 19:00:07;;;;;;;10.63;5.07;;;7.20;99.90;;;;;;5072228;28;20559;-68
2022/04/10 19:02:34;;;;;;;9.83;5.13;;;7.10;99.90;;;;;;5071675;28;20209;-67
2022/04/10 19:05:02;;;;;;;9.53;4.80;;;7.10;99.90;;;;;;5071739;28;20208;-68
2022/04/10 19:07:29;;;;;;;6.23;3.97;;;7.00;99.90;;;;;;5071707;28;20204;-69
2022/04/10 19:09:58;;;;;;;6.33;3.80;;;6.90;99.90;;;;;;5072016;28;20227;-68
2022/04/10 19:12:26;;;;;;;8.57;4.00;;;6.90;99.90;;;;;;5071597;28;20261;-68
2022/04/10 19:14:53;;;;;;;6.43;4.00;;;6.90;99.90;;;;;;5072052;28;20207;-68
2022/04/10 19:17:20;;;;;;;6.33;4.20;;;6.80;99.90;;;;;;5072069;28;20584;-68
2022/04/10 19:19:48;;;;;;;6.03;4.53;;;6.70;99.90;;;;;;5071565;28;20208;-69
2022/04/10 19:22:16;;;;;;;8.07;4.63;;;6.70;99.90;;;;;;5071432;28;20262;-68
2022/04/10 19:24:43;;;;;;;8.47;4.73;;;6.60;99.90;;;;;;5071502;28;20200;-68
2022/04/10 19:27:21;;;;;;;10.17;5.20;;;6.60;99.90;;;;;;5071552;28;20662;-68
2022/04/10 19:29:51;;;;;;;6.97;4.60;;;6.60;99.90;;;;;;5071893;28;20579;-67
2022/04/10 19:32:18;;;;;;;7.97;4.60;;;6.50;99.90;;;;;;5071634;28;20217;-68
2022/04/10 19:34:45;;;;;;;6.33;4.37;;;6.40;99.90;;;;;;5071458;28;20303;-68
2022/04/10 19:37:13;;;;;;;7.53;4.43;;;6.40;99.90;;;;;;5071475;28;20205;-69
2022/04/10 19:39:40;;;;;;;6.87;4.67;;;6.40;99.90;;;;;;5071199;28;20311;-68
2022/04/10 19:42:07;;;;;;;5.67;4.30;;;6.40;99.90;;;;;;5071561;28;20301;-69
2022/04/10 19:44:36;;;;;;;8.87;4.53;;;6.40;99.90;;;;;;5071557;28;20208;-68
2022/04/10 19:47:03;;;;;;;6.40;4.13;;;6.40;99.90;;;;;;5071586;28;20618;-68
2022/04/10 19:49:30;;;;;;;6.07;3.93;;;6.40;99.90;;;;;;5071220;28;20201;-68
2022/04/10 19:51:57;;;;;;;5.13;4.00;;;6.30;99.90;;;;;;5071741;28;20209;-67
2022/04/10 19:54:23;;;;;;;7.33;4.10;;;6.30;99.90;;;;;;5071295;28;20680;-67
2022/04/10 19:56:50;;;;;;;6.47;3.47;;;6.30;99.90;;;;;;5071208;28;20292;-68
2022/04/10 19:59:17;;;;;;;6.60;3.77;;;6.30;99.90;;;;;;5071265;28;20225;-68
2022/04/10 20:01:45;;;;;;;4.67;3.70;;;6.20;99.90;;;;;;5071148;28;20208;-68
2022/04/10 20:04:12;;;;;;;5.03;3.30;;;6.30;99.90;;;;;;5071779;28;20211;-68
2022/04/10 20:06:39;;;;;;;4.93;3.37;;;6.20;99.90;;;;;;5074866;28;20240;-68
2022/04/10 20:09:06;;;;;;;6.70;3.43;;;6.20;99.90;;;;;;5074893;28;20204;-68
2022/04/10 20:11:33;;;;;;;7.53;4.00;;;6.20;99.90;;;;;;5074993;28;20246;-69
2022/04/10 20:14:01;;;;;;;6.87;3.80;;;6.20;99.90;;;;;;5075042;28;20288;-68
2022/04/10 20:16:28;;;;;;;7.23;3.90;;;6.20;99.90;;;;;;5075196;28;20670;-68
2022/04/10 20:18:56;;;;;;;6.37;3.67;;;6.20;99.90;;;;;;5074503;28;20230;-68
2022/04/10 20:21:23;;;;;;;6.13;3.17;;;6.20;99.90;;;;;;5074430;28;20297;-67
2022/04/10 20:23:50;;;;;;;7.10;3.37;;;6.20;99.90;;;;;;5074557;28;20240;-68
2022/04/10 20:26:17;;;;;;;6.10;3.53;;;6.30;99.90;;;;;;5074409;28;20296;-67
2022/04/10 20:28:44;;;;;;;9.30;3.87;;;6.30;99.90;;;;;;5074215;28;20239;-68
2022/04/10 20:31:11;;;;;;;6.90;3.77;;;6.30;99.90;;;;;;5074297;28;20212;-67
2022/04/10 20:33:38;;;;;;;7.70;4.10;;;6.30;99.90;;;;;;5074628;28;20204;-68
2022/04/10 20:36:07;;;;;;;7.23;3.63;;;6.40;99.90;;;;;;5074236;28;20211;-67
2022/04/10 20:38:34;;;;;;;12.27;4.80;;;6.40;99.90;;;;;;5074491;28;20291;-68
2022/04/10 20:41:01;;;;;;;9.60;4.70;;;6.40;99.90;;;;;;5074630;28;20208;-67
2022/04/10 20:43:27;;;;;;;11.37;5.17;;;6.40;99.90;;;;;;5074113;28;20287;-68
2022/04/10 20:45:55;;;;;;;14.10;6.00;;;6.50;99.90;;;;;;5074477;28;20307;-67
2022/04/10 20:48:22;;;;;;;11.57;5.60;;;6.50;99.90;;;;;;5074237;28;20204;-69
2022/04/10 20:50:48;;;;;;;15.70;6.33;;;6.50;99.90;;;;;;5074331;28;20197;-68
2022/04/10 20:53:17;;;;;;;16.77;6.97;;;6.50;99.90;;;;;;5074263;28;20705;-68
2022/04/10 20:55:43;;;;;;;12.37;5.30;;;6.50;99.90;;;;;;5074433;28;20308;-69
2022/04/10 20:58:12;;;;;;;10.33;5.70;;;6.50;99.90;;;;;;5074189;28;20662;-67
2022/04/10 21:00:39;;;;;;;16.83;6.43;;;6.50;99.90;;;;;;5073838;28;20221;-68
2022/04/10 21:03:07;;;;;;;9.87;5.50;;;6.50;99.90;;;;;;5073997;28;20222;-69
2022/04/10 21:05:34;;;;;;;12.17;5.63;;;6.50;99.90;;;;;;5074166;28;20200;-68
2022/04/10 21:08:01;;;;;;;10.23;5.53;;;6.50;99.90;;;;;;5074121;28;20296;-68
2022/04/10 21:13:23;;;;;;;16.87;5.90;;;6.60;99.90;;;;;;5048426;28;20201;-67
2022/04/10 21:15:54;;;;;;;15.70;6.30;;;6.50;99.90;;;;;;5073801;28;20226;-67
2022/04/10 21:18:21;;;;;;;13.33;5.33;;;6.50;99.90;;;;;;5073778;28;20224;-68
2022/04/10 21:20:48;;;;;;;14.27;6.27;;;6.50;99.90;;;;;;5073692;28;20641;-68
2022/04/10 21:23:15;;;;;;;12.87;5.83;;;6.60;99.90;;;;;;5073510;28;20291;-67
2022/04/10 21:25:43;;;;;;;15.80;6.13;;;6.50;99.90;;;;;;5073617;28;20211;-66
2022/04/10 21:28:10;;;;;;;14.63;6.20;;;6.50;99.90;;;;;;5073089;28;20243;-68
2022/04/10 21:30:37;;;;;;;13.17;5.63;;;6.50;99.90;;;;;;5073559;28;20741;-68
2022/04/10 21:33:04;;;;;;;12.37;5.83;;;6.50;99.90;;;;;;5073010;28;20212;-67
2022/04/10 21:35:31;;;;;;;11.80;5.47;;;6.50;99.90;;;;;;5073127;28;20213;-68
2022/04/10 21:37:58;;;;;;;13.50;5.73;;;6.50;99.90;;;;;;5073014;28;20366;-68
2022/04/10 21:40:24;;;;;;;12.60;4.97;;;6.40;99.90;;;;;;5073026;28;20235;-68
2022/04/10 21:42:53;;;;;;;9.13;4.60;;;6.40;99.90;;;;;;5073299;28;20568;-66
2022/04/10 21:45:20;;;;;;;10.57;4.50;;;6.40;99.90;;;;;;5073153;28;20208;-68
2022/04/10 21:47:46;;;;;;;9.23;4.70;;;6.30;99.90;;;;;;5073033;28;20232;-68
2022/04/10 21:50:13;;;;;;;8.97;3.97;;;6.30;99.90;;;;;;5073076;28;20732;-68
2022/04/10 21:52:40;;;;;;;7.23;3.23;;;6.20;99.90;;;;;;5072792;28;20291;-68
2022/04/10 21:55:08;;;;;;;6.80;3.60;;;6.10;99.90;;;;;;5072675;28;20205;-68
2022/04/10 21:57:35;;;;;;;7.80;3.60;;;6.10;99.90;;;;;;5073004;28;20621;-68
2022/04/10 22:00:05;;;;;;;5.40;3.30;;;6.00;99.90;;;;;;5072410;28;20312;-67
2022/04/10 22:02:32;;;;;;;5.57;2.93;;;6.00;99.90;;;;;;5073063;28;20560;-68
2022/04/10 22:04:59;;;;;;;8.17;3.53;;;6.00;99.90;;;;;;5072748;28;20205;-68
2022/04/10 22:07:26;;;;;;;8.40;3.40;;;6.00;99.90;;;;;;5072851;28;20300;-68
2022/04/10 22:09:52;;;;;;;8.10;3.73;;;6.00;99.90;;;;;;5072938;28;20729;-67
2022/04/10 22:12:19;;;;;;;7.83;4.03;;;5.90;99.90;;;;;;5072701;28;20705;-67
2022/04/10 22:14:46;;;;;;;8.60;4.00;;;5.80;99.90;;;;;;5072411;28;20200;-67
2022/04/10 22:17:14;;;;;;;5.77;3.90;;;5.80;99.90;;;;;;5072371;28;20200;-68
2022/04/10 22:19:41;;;;;;;4.40;3.00;;;5.70;99.90;;;;;;5072264;28;20319;-67
2022/04/10 22:22:08;;;;;;;5.53;3.37;;;5.70;99.90;;;;;;5072085;28;20250;-68
2022/04/10 22:24:35;;;;;;;3.40;2.80;;;5.70;99.90;;;;;;5072395;28;20637;-66
2022/04/10 22:27:02;;;;;;;5.23;3.33;;;5.60;99.90;;;;;;5071455;28;20247;-67
2022/04/10 22:29:29;;;;;;;6.70;3.40;;;5.60;99.90;;;;;;5071912;28;20736;-69
2022/04/10 22:31:56;;;;;;;6.50;3.53;;;5.50;99.90;;;;;;5071900;28;20281;-67
2022/04/10 22:34:24;;;;;;;6.73;3.33;;;5.60;99.90;;;;;;5072233;28;20210;-68
2022/04/10 22:36:51;;;;;;;5.47;3.33;;;5.60;99.90;;;;;;5072011;28;20204;-68
2022/04/10 22:39:18;;;;;;;6.40;3.77;;;5.60;99.90;;;;;;5071861;28;20693;-68
2022/04/10 22:41:44;;;;;;;5.77;3.30;;;5.50;99.90;;;;;;5072138;28;20691;-68
2022/04/10 22:44:11;;;;;;;5.13;3.40;;;5.50;99.90;;;;;;5071611;28;20209;-68
2022/04/10 22:46:38;;;;;;;7.07;3.60;;;5.40;99.90;;;;;;5071863;28;20330;-68
2022/04/10 22:49:05;;;;;;;5.93;3.37;;;5.50;99.90;;;;;;5071721;28;20240;-68
2022/04/10 22:51:33;;;;;;;7.00;3.33;;;5.40;99.90;;;;;;5072008;28;20718;-67
2022/04/10 22:54:00;;;;;;;7.40;3.43;;;5.40;99.90;;;;;;5071750;28;20631;-67
2022/04/10 22:56:27;;;;;;;10.10;4.03;;;5.40;99.90;;;;;;5071702;28;20215;-68
2022/04/10 22:58:54;;;;;;;6.80;3.53;;;5.40;99.90;;;;;;5071575;28;20299;-67
2022/04/10 23:01:21;;;;;;;8.97;3.57;;;5.40;99.90;;;;;;5071528;28;20226;-69
2022/04/10 23:03:48;;;;;;;6.87;3.80;;;5.30;99.90;;;;;;5071701;28;20209;-67
2022/04/10 23:06:16;;;;;;;7.33;4.40;;;5.30;99.90;;;;;;5071721;28;20212;-69
2022/04/10 23:08:44;;;;;;;7.50;3.80;;;5.30;99.90;;;;;;5071593;28;20208;-67
2022/04/10 23:11:11;;;;;;;7.17;3.60;;;5.30;99.90;;;;;;5071856;28;20717;-68
2022/04/10 23:13:38;;;;;;;9.73;3.80;;;5.30;99.90;;;;;;5071417;28;20239;-68
2022/04/10 23:16:05;;;;;;;6.50;3.70;;;5.40;99.90;;;;;;5071316;28;20240;-68
2022/04/10 23:18:34;;;;;;;6.47;4.10;;;5.30;99.90;;;;;;5071578;28;20315;-67
2022/04/10 23:21:01;;;;;;;5.80;3.50;;;5.30;99.90;;;;;;5071469;28;20221;-67
2022/04/10 23:23:28;;;;;;;6.40;3.87;;;5.30;99.90;;;;;;5071863;28;20204;-68
2022/04/10 23:25:56;;;;;;;7.13;3.40;;;5.30;99.90;;;;;;5071290;28;20303;-69
2022/04/10 23:28:23;;;;;;;5.30;3.30;;;5.30;99.90;;;;;;5071446;28;20814;-68
2022/04/10 23:30:49;;;;;;;5.67;3.50;;;5.30;99.90;;;;;;5071583;28;20247;-69
2022/04/10 23:33:16;;;;;;;4.67;3.30;;;5.30;99.90;;;;;;5071765;28;20296;-67
2022/04/10 23:35:43;;;;;;;6.20;3.30;;;5.30;99.90;;;;;;5071257;28;20581;-67
2022/04/10 23:38:10;;;;;;;4.10;3.30;;;5.30;99.90;;;;;;5071599;28;20212;-68
2022/04/10 23:40:37;;;;;;;5.97;3.70;;;5.30;99.90;;;;;;5074787;28;20315;-66
2022/04/10 23:43:05;;;;;;;5.97;3.93;;;5.30;99.90;;;;;;5075556;28;20644;-67
2022/04/10 23:45:32;;;;;;;7.30;4.27;;;5.30;99.90;;;;;;5075400;28;20205;-68
2022/04/10 23:47:59;;;;;;;7.83;4.23;;;5.30;99.90;;;;;;5075457;28;20653;-68
2022/04/10 23:50:26;;;;;;;10.57;4.97;;;5.30;99.90;;;;;;5075518;28;20204;-68
2022/04/10 23:52:53;;;;;;;10.07;5.10;;;5.30;99.90;;;;;;5075251;28;20300;-68
2022/04/10 23:55:20;;;;;;;14.80;6.37;;;5.30;99.90;;;;;;5075377;28;20632;-67
2022/04/10 23:57:46;;;;;;;12.87;5.80;;;5.30;99.90;;;;;;5074980;28;20240;-67
